sensor_id;sensor_type;location;lat;lon;timestamp;temperature;humidity
38131;DHT22;23947;51.894;4.622;2022-09-02T00:01:40;16.20;1.00
38131;DHT22;23947;51.894;4.622;2022-09-02T00:04:14;16.20;1.00
38131;DHT22;23947;51.894;4.622;2022-09-02T00:06:42;16.20;1.00
38131;DHT22;23947;51.894;4.622;2022-09-02T00:09:09;16.10;1.00
38131;DHT22;23947;51.894;4.622;2022-09-02T00:11:37;16.00;1.00
38131;DHT22;23947;51.894;4.622;2022-09-02T00:14:06;16.00;1.00
38131;DHT22;23947;51.894;4.622;2022-09-02T00:16:33;15.90;1.00
38131;DHT22;23947;51.894;4.622;2022-09-02T00:19:00;15.80;1.00
38131;DHT22;23947;51.894;4.622;2022-09-02T00:21:28;15.70;1.00
38131;DHT22;23947;51.894;4.622;2022-09-02T00:23:53;15.70;1.00
38131;DHT22;23947;51.894;4.622;2022-09-02T00:26:19;15.60;1.00
38131;DHT22;23947;51.894;4.622;2022-09-02T00:28:46;15.60;1.00
38131;DHT22;23947;51.894;4.622;2022-09-02T00:31:13;15.60;1.00
38131;DHT22;23947;51.894;4.622;2022-09-02T00:33:39;15.50;1.00
38131;DHT22;23947;51.894;4.622;2022-09-02T00:36:05;15.50;1.00
38131;DHT22;23947;51.894;4.622;2022-09-02T00:38:32;15.50;1.00
38131;DHT22;23947;51.894;4.622;2022-09-02T00:41:00;15.40;1.00
38131;DHT22;23947;51.894;4.622;2022-09-02T00:46:03;15.40;1.00
38131;DHT22;23947;51.894;4.622;2022-09-02T00:48:28;15.40;1.00
38131;DHT22;23947;51.894;4.622;2022-09-02T00:50:54;15.40;1.00
38131;DHT22;23947;51.894;4.622;2022-09-02T00:53:20;15.40;1.00
38131;DHT22;23947;51.894;4.622;2022-09-02T00:55:48;15.40;1.00
38131;DHT22;23947;51.894;4.622;2022-09-02T00:58:20;15.40;1.00
38131;DHT22;23947;51.894;4.622;2022-09-02T01:00:48;15.40;1.00
38131;DHT22;23947;51.894;4.622;2022-09-02T01:03:19;15.40;1.00
38131;DHT22;23947;51.894;4.622;2022-09-02T01:05:48;15.40;1.00
38131;DHT22;23947;51.894;4.622;2022-09-02T01:08:20;15.40;1.00
38131;DHT22;23947;51.894;4.622;2022-09-02T01:10:48;15.40;1.00
38131;DHT22;23947;51.894;4.622;2022-09-02T01:13:19;15.40;1.00
38131;DHT22;23947;51.894;4.622;2022-09-02T01:15:48;15.40;1.00
38131;DHT22;23947;51.894;4.622;2022-09-02T01:18:18;15.40;1.00
38131;DHT22;23947;51.894;4.622;2022-09-02T01:20:45;15.40;1.00
38131;DHT22;23947;51.894;4.622;2022-09-02T01:23:13;15.40;1.00
38131;DHT22;23947;51.894;4.622;2022-09-02T01:25:40;15.40;1.00
38131;DHT22;23947;51.894;4.622;2022-09-02T01:28:10;15.40;1.00
38131;DHT22;23947;51.894;4.622;2022-09-02T01:30:38;15.40;1.00
38131;DHT22;23947;51.894;4.622;2022-09-02T01:33:06;15.50;1.00
38131;DHT22;23947;51.894;4.622;2022-09-02T01:35:32;15.50;1.00
38131;DHT22;23947;51.894;4.622;2022-09-02T01:37:58;15.50;1.00
38131;DHT22;23947;51.894;4.622;2022-09-02T01:40:26;15.60;1.00
38131;DHT22;23947;51.894;4.622;2022-09-02T01:42:57;15.60;1.00
38131;DHT22;23947;51.894;4.622;2022-09-02T01:45:24;15.60;1.00
38131;DHT22;23947;51.894;4.622;2022-09-02T01:47:50;15.70;1.00
38131;DHT22;23947;51.894;4.622;2022-09-02T01:50:16;15.70;1.00
38131;DHT22;23947;51.894;4.622;2022-09-02T01:52:42;15.80;1.00
38131;DHT22;23947;51.894;4.622;2022-09-02T01:55:08;15.80;1.00
38131;DHT22;23947;51.894;4.622;2022-09-02T01:57:34;15.90;1.00
38131;DHT22;23947;51.894;4.622;2022-09-02T02:00:00;15.90;1.00
38131;DHT22;23947;51.894;4.622;2022-09-02T02:02:26;15.90;1.00
38131;DHT22;23947;51.894;4.622;2022-09-02T02:04:53;15.90;1.00
38131;DHT22;23947;51.894;4.622;2022-09-02T02:07:20;15.90;1.00
38131;DHT22;23947;51.894;4.622;2022-09-02T02:09:47;15.90;1.00
38131;DHT22;23947;51.894;4.622;2022-09-02T02:12:14;15.90;1.00
38131;DHT22;23947;51.894;4.622;2022-09-02T02:14:40;15.90;1.00
38131;DHT22;23947;51.894;4.622;2022-09-02T02:17:06;15.90;1.00
38131;DHT22;23947;51.894;4.622;2022-09-02T02:19:32;15.80;1.00
38131;DHT22;23947;51.894;4.622;2022-09-02T02:21:57;15.80;1.00
38131;DHT22;23947;51.894;4.622;2022-09-02T02:24:23;15.80;1.00
38131;DHT22;23947;51.894;4.622;2022-09-02T02:26:48;15.70;1.00
38131;DHT22;23947;51.894;4.622;2022-09-02T02:29:14;15.70;1.00
38131;DHT22;23947;51.894;4.622;2022-09-02T02:31:40;15.60;1.00
38131;DHT22;23947;51.894;4.622;2022-09-02T02:34:06;15.60;1.00
38131;DHT22;23947;51.894;4.622;2022-09-02T02:36:32;15.50;1.00
38131;DHT22;23947;51.894;4.622;2022-09-02T02:38:58;15.40;1.00
38131;DHT22;23947;51.894;4.622;2022-09-02T02:41:26;15.40;1.00
38131;DHT22;23947;51.894;4.622;2022-09-02T02:43:52;15.40;1.00
38131;DHT22;23947;51.894;4.622;2022-09-02T02:46:18;15.40;1.00
38131;DHT22;23947;51.894;4.622;2022-09-02T02:48:43;15.30;1.00
38131;DHT22;23947;51.894;4.622;2022-09-02T02:51:09;15.40;1.00
38131;DHT22;23947;51.894;4.622;2022-09-02T02:53:35;15.40;1.00
38131;DHT22;23947;51.894;4.622;2022-09-02T02:56:02;15.40;1.00
38131;DHT22;23947;51.894;4.622;2022-09-02T02:58:28;15.40;1.00
38131;DHT22;23947;51.894;4.622;2022-09-02T03:00:55;15.40;1.00
38131;DHT22;23947;51.894;4.622;2022-09-02T03:03:21;15.50;1.00
38131;DHT22;23947;51.894;4.622;2022-09-02T03:05:48;15.50;1.00
38131;DHT22;23947;51.894;4.622;2022-09-02T03:08:14;15.50;1.00
38131;DHT22;23947;51.894;4.622;2022-09-02T03:10:41;15.50;1.00
38131;DHT22;23947;51.894;4.622;2022-09-02T03:13:07;15.50;1.00
38131;DHT22;23947;51.894;4.622;2022-09-02T03:15:38;15.50;1.00
38131;DHT22;23947;51.894;4.622;2022-09-02T03:18:04;15.50;1.00
38131;DHT22;23947;51.894;4.622;2022-09-02T03:20:30;15.50;1.00
38131;DHT22;23947;51.894;4.622;2022-09-02T03:22:57;15.50;1.00
38131;DHT22;23947;51.894;4.622;2022-09-02T03:25:24;15.50;1.00
38131;DHT22;23947;51.894;4.622;2022-09-02T03:27:50;15.50;1.00
38131;DHT22;23947;51.894;4.622;2022-09-02T03:30:22;15.50;1.00
38131;DHT22;23947;51.894;4.622;2022-09-02T03:32:50;15.50;1.00
38131;DHT22;23947;51.894;4.622;2022-09-02T03:35:18;15.50;1.00
38131;DHT22;23947;51.894;4.622;2022-09-02T03:37:46;15.50;1.00
38131;DHT22;23947;51.894;4.622;2022-09-02T03:40:16;15.50;1.00
38131;DHT22;23947;51.894;4.622;2022-09-02T03:42:42;15.50;1.00
38131;DHT22;23947;51.894;4.622;2022-09-02T03:45:09;15.50;1.00
38131;DHT22;23947;51.894;4.622;2022-09-02T03:47:35;15.50;1.00
38131;DHT22;23947;51.894;4.622;2022-09-02T03:50:02;15.50;1.00
38131;DHT22;23947;51.894;4.622;2022-09-02T03:52:29;15.50;1.00
38131;DHT22;23947;51.894;4.622;2022-09-02T03:54:54;15.50;1.00
38131;DHT22;23947;51.894;4.622;2022-09-02T03:57:21;15.50;1.00
38131;DHT22;23947;51.894;4.622;2022-09-02T03:59:50;15.50;1.00
38131;DHT22;23947;51.894;4.622;2022-09-02T04:02:15;15.50;1.00
38131;DHT22;23947;51.894;4.622;2022-09-02T04:04:41;15.40;1.00
38131;DHT22;23947;51.894;4.622;2022-09-02T04:07:07;15.40;1.00
38131;DHT22;23947;51.894;4.622;2022-09-02T04:09:33;15.50;1.00
38131;DHT22;23947;51.894;4.622;2022-09-02T04:11:58;15.40;1.00
38131;DHT22;23947;51.894;4.622;2022-09-02T04:14:24;15.40;1.00
38131;DHT22;23947;51.894;4.622;2022-09-02T04:16:49;15.40;1.00
38131;DHT22;23947;51.894;4.622;2022-09-02T04:19:15;15.40;1.00
38131;DHT22;23947;51.894;4.622;2022-09-02T04:21:41;15.30;1.00
38131;DHT22;23947;51.894;4.622;2022-09-02T04:24:08;15.40;1.00
38131;DHT22;23947;51.894;4.622;2022-09-02T04:26:34;15.30;1.00
38131;DHT22;23947;51.894;4.622;2022-09-02T04:29:00;15.30;1.00
38131;DHT22;23947;51.894;4.622;2022-09-02T04:31:26;15.30;1.00
38131;DHT22;23947;51.894;4.622;2022-09-02T04:33:56;15.30;1.00
38131;DHT22;23947;51.894;4.622;2022-09-02T04:36:23;15.20;1.00
38131;DHT22;23947;51.894;4.622;2022-09-02T04:38:50;15.20;1.00
38131;DHT22;23947;51.894;4.622;2022-09-02T04:41:22;15.30;1.00
38131;DHT22;23947;51.894;4.622;2022-09-02T04:43:51;15.20;1.00
38131;DHT22;23947;51.894;4.622;2022-09-02T04:46:19;15.20;1.00
38131;DHT22;23947;51.894;4.622;2022-09-02T04:48:45;15.20;1.00
38131;DHT22;23947;51.894;4.622;2022-09-02T04:51:17;15.20;1.00
38131;DHT22;23947;51.894;4.622;2022-09-02T04:53:45;15.20;1.00
38131;DHT22;23947;51.894;4.622;2022-09-02T04:56:13;15.20;1.00
38131;DHT22;23947;51.894;4.622;2022-09-02T04:58:41;15.20;1.00
38131;DHT22;23947;51.894;4.622;2022-09-02T05:01:11;15.20;1.00
38131;DHT22;23947;51.894;4.622;2022-09-02T05:03:39;15.20;1.00
38131;DHT22;23947;51.894;4.622;2022-09-02T05:06:08;15.20;1.00
38131;DHT22;23947;51.894;4.622;2022-09-02T05:08:34;15.20;1.00
38131;DHT22;23947;51.894;4.622;2022-09-02T05:11:11;15.20;1.00
38131;DHT22;23947;51.894;4.622;2022-09-02T05:13:38;15.20;1.00
38131;DHT22;23947;51.894;4.622;2022-09-02T05:16:05;15.10;1.00
38131;DHT22;23947;51.894;4.622;2022-09-02T05:18:31;15.10;1.00
38131;DHT22;23947;51.894;4.622;2022-09-02T05:20:57;15.10;1.00
38131;DHT22;23947;51.894;4.622;2022-09-02T05:23:23;15.10;1.00
38131;DHT22;23947;51.894;4.622;2022-09-02T05:25:49;15.10;1.00
38131;DHT22;23947;51.894;4.622;2022-09-02T05:28:14;15.10;1.00
38131;DHT22;23947;51.894;4.622;2022-09-02T05:30:41;15.10;1.00
38131;DHT22;23947;51.894;4.622;2022-09-02T05:33:08;15.10;1.00
38131;DHT22;23947;51.894;4.622;2022-09-02T05:35:41;15.10;1.00
38131;DHT22;23947;51.894;4.622;2022-09-02T05:38:07;15.20;1.00
38131;DHT22;23947;51.894;4.622;2022-09-02T05:40:35;15.20;1.00
38131;DHT22;23947;51.894;4.622;2022-09-02T05:43:00;15.10;1.00
38131;DHT22;23947;51.894;4.622;2022-09-02T05:45:26;15.20;1.00
38131;DHT22;23947;51.894;4.622;2022-09-02T05:47:51;15.20;1.00
38131;DHT22;23947;51.894;4.622;2022-09-02T05:50:17;15.30;1.00
38131;DHT22;23947;51.894;4.622;2022-09-02T05:52:43;15.40;1.00
38131;DHT22;23947;51.894;4.622;2022-09-02T05:55:09;15.40;1.00
38131;DHT22;23947;51.894;4.622;2022-09-02T05:57:35;15.40;1.00
38131;DHT22;23947;51.894;4.622;2022-09-02T06:00:02;15.40;1.00
38131;DHT22;23947;51.894;4.622;2022-09-02T06:02:28;15.30;1.00
38131;DHT22;23947;51.894;4.622;2022-09-02T06:04:53;15.30;1.00
38131;DHT22;23947;51.894;4.622;2022-09-02T06:07:23;15.30;1.00
38131;DHT22;23947;51.894;4.622;2022-09-02T06:09:49;15.30;1.00
38131;DHT22;23947;51.894;4.622;2022-09-02T06:12:16;15.40;1.00
38131;DHT22;23947;51.894;4.622;2022-09-02T06:14:45;15.40;1.00
38131;DHT22;23947;51.894;4.622;2022-09-02T06:17:12;15.40;1.00
38131;DHT22;23947;51.894;4.622;2022-09-02T06:19:37;15.50;1.00
38131;DHT22;23947;51.894;4.622;2022-09-02T06:22:03;15.40;1.00
38131;DHT22;23947;51.894;4.622;2022-09-02T06:24:30;15.50;1.00
38131;DHT22;23947;51.894;4.622;2022-09-02T06:26:56;15.50;1.00
38131;DHT22;23947;51.894;4.622;2022-09-02T06:29:23;15.60;1.00
38131;DHT22;23947;51.894;4.622;2022-09-02T06:31:50;15.60;1.00
38131;DHT22;23947;51.894;4.622;2022-09-02T06:34:19;15.60;1.00
38131;DHT22;23947;51.894;4.622;2022-09-02T06:36:47;15.60;1.00
38131;DHT22;23947;51.894;4.622;2022-09-02T06:39:16;15.70;1.00
38131;DHT22;23947;51.894;4.622;2022-09-02T06:41:42;15.70;1.00
38131;DHT22;23947;51.894;4.622;2022-09-02T06:44:10;15.80;1.00
38131;DHT22;23947;51.894;4.622;2022-09-02T06:46:38;15.80;1.00
38131;DHT22;23947;51.894;4.622;2022-09-02T06:49:06;15.90;1.00
38131;DHT22;23947;51.894;4.622;2022-09-02T06:51:35;15.90;1.00
38131;DHT22;23947;51.894;4.622;2022-09-02T06:54:04;15.90;1.00
38131;DHT22;23947;51.894;4.622;2022-09-02T06:56:32;16.00;1.00
38131;DHT22;23947;51.894;4.622;2022-09-02T06:58:58;16.00;1.00
38131;DHT22;23947;51.894;4.622;2022-09-02T07:01:26;16.10;1.00
38131;DHT22;23947;51.894;4.622;2022-09-02T07:03:53;16.10;1.00
38131;DHT22;23947;51.894;4.622;2022-09-02T07:06:40;16.20;1.00
38131;DHT22;23947;51.894;4.622;2022-09-02T07:09:06;16.20;1.00
38131;DHT22;23947;51.894;4.622;2022-09-02T07:11:33;16.30;1.00
38131;DHT22;23947;51.894;4.622;2022-09-02T07:13:59;16.30;1.00
38131;DHT22;23947;51.894;4.622;2022-09-02T07:16:27;16.40;1.00
38131;DHT22;23947;51.894;4.622;2022-09-02T07:18:54;16.40;1.00
38131;DHT22;23947;51.894;4.622;2022-09-02T07:21:20;16.50;1.00
38131;DHT22;23947;51.894;4.622;2022-09-02T07:23:46;16.50;1.00
38131;DHT22;23947;51.894;4.622;2022-09-02T07:26:13;16.60;1.00
38131;DHT22;23947;51.894;4.622;2022-09-02T07:28:39;16.60;1.00
38131;DHT22;23947;51.894;4.622;2022-09-02T07:31:08;16.70;1.00
38131;DHT22;23947;51.894;4.622;2022-09-02T07:33:34;16.70;1.00
38131;DHT22;23947;51.894;4.622;2022-09-02T07:36:05;16.80;1.00
38131;DHT22;23947;51.894;4.622;2022-09-02T07:38:31;16.90;1.00
38131;DHT22;23947;51.894;4.622;2022-09-02T07:40:57;16.90;1.00
38131;DHT22;23947;51.894;4.622;2022-09-02T07:43:25;17.00;1.00
38131;DHT22;23947;51.894;4.622;2022-09-02T07:45:51;17.10;1.00
38131;DHT22;23947;51.894;4.622;2022-09-02T07:48:20;17.10;1.00
38131;DHT22;23947;51.894;4.622;2022-09-02T07:50:46;17.20;1.00
38131;DHT22;23947;51.894;4.622;2022-09-02T07:53:12;17.30;1.00
38131;DHT22;23947;51.894;4.622;2022-09-02T07:55:38;17.40;1.00
38131;DHT22;23947;51.894;4.622;2022-09-02T07:58:06;17.50;1.00
38131;DHT22;23947;51.894;4.622;2022-09-02T08:00:31;17.60;1.00
38131;DHT22;23947;51.894;4.622;2022-09-02T08:02:58;17.60;1.00
38131;DHT22;23947;51.894;4.622;2022-09-02T08:05:25;17.70;1.00
38131;DHT22;23947;51.894;4.622;2022-09-02T08:07:51;17.80;1.00
38131;DHT22;23947;51.894;4.622;2022-09-02T08:10:17;17.90;1.00
38131;DHT22;23947;51.894;4.622;2022-09-02T08:12:46;18.00;1.00
38131;DHT22;23947;51.894;4.622;2022-09-02T08:15:12;18.20;1.00
38131;DHT22;23947;51.894;4.622;2022-09-02T08:17:39;18.30;1.00
38131;DHT22;23947;51.894;4.622;2022-09-02T08:20:09;18.40;1.00
38131;DHT22;23947;51.894;4.622;2022-09-02T08:22:37;18.50;1.00
38131;DHT22;23947;51.894;4.622;2022-09-02T08:25:03;18.60;1.00
38131;DHT22;23947;51.894;4.622;2022-09-02T08:27:29;18.70;1.00
38131;DHT22;23947;51.894;4.622;2022-09-02T08:29:56;18.80;1.00
38131;DHT22;23947;51.894;4.622;2022-09-02T08:32:23;18.80;1.00
38131;DHT22;23947;51.894;4.622;2022-09-02T08:34:49;18.80;1.00
38131;DHT22;23947;51.894;4.622;2022-09-02T08:37:14;18.90;1.00
38131;DHT22;23947;51.894;4.622;2022-09-02T08:39:43;18.90;1.00
38131;DHT22;23947;51.894;4.622;2022-09-02T08:42:33;19.10;1.00
38131;DHT22;23947;51.894;4.622;2022-09-02T08:45:13;19.20;1.00
38131;DHT22;23947;51.894;4.622;2022-09-02T08:47:42;19.30;1.00
38131;DHT22;23947;51.894;4.622;2022-09-02T08:50:13;19.30;1.00
38131;DHT22;23947;51.894;4.622;2022-09-02T08:52:47;19.40;1.00
38131;DHT22;23947;51.894;4.622;2022-09-02T08:55:20;19.40;1.00
38131;DHT22;23947;51.894;4.622;2022-09-02T08:57:48;19.40;1.00
38131;DHT22;23947;51.894;4.622;2022-09-02T09:00:14;19.50;1.00
38131;DHT22;23947;51.894;4.622;2022-09-02T09:03:03;19.50;1.00
38131;DHT22;23947;51.894;4.622;2022-09-02T09:05:44;19.50;1.00
38131;DHT22;23947;51.894;4.622;2022-09-02T09:08:26;19.60;1.00
38131;DHT22;23947;51.894;4.622;2022-09-02T09:11:02;19.60;1.00
38131;DHT22;23947;51.894;4.622;2022-09-02T09:13:56;19.80;1.00
38131;DHT22;23947;51.894;4.622;2022-09-02T09:22:04;20.00;1.00
38131;DHT22;23947;51.894;4.622;2022-09-02T09:24:38;20.10;1.00
38131;DHT22;23947;51.894;4.622;2022-09-02T09:27:09;20.20;1.00
38131;DHT22;23947;51.894;4.622;2022-09-02T09:29:36;20.30;1.00
38131;DHT22;23947;51.894;4.622;2022-09-02T09:32:02;20.40;1.00
38131;DHT22;23947;51.894;4.622;2022-09-02T09:35:08;20.40;1.00
38131;DHT22;23947;51.894;4.622;2022-09-02T09:37:37;20.50;1.00
38131;DHT22;23947;51.894;4.622;2022-09-02T09:42:45;20.60;1.00
38131;DHT22;23947;51.894;4.622;2022-09-02T09:45:33;20.70;1.00
38131;DHT22;23947;51.894;4.622;2022-09-02T09:48:05;20.80;1.00
38131;DHT22;23947;51.894;4.622;2022-09-02T09:50:32;20.90;1.00
38131;DHT22;23947;51.894;4.622;2022-09-02T09:55:52;21.10;1.00
38131;DHT22;23947;51.894;4.622;2022-09-02T09:58:17;21.20;1.00
38131;DHT22;23947;51.894;4.622;2022-09-02T10:00:43;21.30;1.00
38131;DHT22;23947;51.894;4.622;2022-09-02T10:03:16;21.40;1.00
38131;DHT22;23947;51.894;4.622;2022-09-02T10:05:43;21.40;1.00
38131;DHT22;23947;51.894;4.622;2022-09-02T10:10:40;21.60;1.00
38131;DHT22;23947;51.894;4.622;2022-09-02T10:13:20;21.60;1.00
38131;DHT22;23947;51.894;4.622;2022-09-02T10:18:33;21.70;1.00
38131;DHT22;23947;51.894;4.622;2022-09-02T10:21:01;21.80;1.00
38131;DHT22;23947;51.894;4.622;2022-09-02T10:23:34;21.80;1.00
38131;DHT22;23947;51.894;4.622;2022-09-02T10:36:23;22.20;1.00
38131;DHT22;23947;51.894;4.622;2022-09-02T10:38:52;22.30;1.00
38131;DHT22;23947;51.894;4.622;2022-09-02T10:41:23;22.40;1.00
38131;DHT22;23947;51.894;4.622;2022-09-02T10:44:06;22.40;1.00
38131;DHT22;23947;51.894;4.622;2022-09-02T10:46:57;22.60;1.00
38131;DHT22;23947;51.894;4.622;2022-09-02T10:51:54;22.80;1.00
38131;DHT22;23947;51.894;4.622;2022-09-02T10:54:38;22.80;1.00
38131;DHT22;23947;51.894;4.622;2022-09-02T10:57:27;22.90;1.00
38131;DHT22;23947;51.894;4.622;2022-09-02T11:02:46;23.10;1.00
38131;DHT22;23947;51.894;4.622;2022-09-02T11:10:08;23.60;1.00
38131;DHT22;23947;51.894;4.622;2022-09-02T11:12:53;23.80;1.00
38131;DHT22;23947;51.894;4.622;2022-09-02T11:15:21;24.00;1.00
38131;DHT22;23947;51.894;4.622;2022-09-02T11:18:00;24.30;1.00
38131;DHT22;23947;51.894;4.622;2022-09-02T11:23:05;24.70;1.00
38131;DHT22;23947;51.894;4.622;2022-09-02T11:25:38;24.90;1.00
38131;DHT22;23947;51.894;4.622;2022-09-02T11:28:14;25.20;1.00
38131;DHT22;23947;51.894;4.622;2022-09-02T11:30:56;25.30;1.00
38131;DHT22;23947;51.894;4.622;2022-09-02T11:33:26;25.60;1.00
38131;DHT22;23947;51.894;4.622;2022-09-02T11:35:52;25.90;1.00
38131;DHT22;23947;51.894;4.622;2022-09-02T11:53:43;26.80;1.00
38131;DHT22;23947;51.894;4.622;2022-09-02T11:58:37;27.00;1.00
38131;DHT22;23947;51.894;4.622;2022-09-02T12:01:04;27.20;1.00
38131;DHT22;23947;51.894;4.622;2022-09-02T12:03:30;27.20;1.00
38131;DHT22;23947;51.894;4.622;2022-09-02T12:06:16;27.20;1.00
38131;DHT22;23947;51.894;4.622;2022-09-02T12:11:32;27.40;1.00
38131;DHT22;23947;51.894;4.622;2022-09-02T12:13:54;27.40;1.00
38131;DHT22;23947;51.894;4.622;2022-09-02T12:21:15;27.40;1.00
38131;DHT22;23947;51.894;4.622;2022-09-02T12:26:12;27.40;1.00
38131;DHT22;23947;51.894;4.622;2022-09-02T12:28:38;27.50;1.00
38131;DHT22;23947;51.894;4.622;2022-09-02T12:33:33;27.70;1.00
38131;DHT22;23947;51.894;4.622;2022-09-02T12:35:59;27.80;1.00
38131;DHT22;23947;51.894;4.622;2022-09-02T12:38:29;27.90;1.00
38131;DHT22;23947;51.894;4.622;2022-09-02T12:46:24;28.10;1.00
38131;DHT22;23947;51.894;4.622;2022-09-02T12:54:08;28.20;1.00
38131;DHT22;23947;51.894;4.622;2022-09-02T12:56:33;28.20;1.00
38131;DHT22;23947;51.894;4.622;2022-09-02T12:58:59;28.20;1.00
38131;DHT22;23947;51.894;4.622;2022-09-02T13:06:52;28.20;1.00
38131;DHT22;23947;51.894;4.622;2022-09-02T13:09:45;28.30;1.00
38131;DHT22;23947;51.894;4.622;2022-09-02T13:32:35;28.70;1.00
38131;DHT22;23947;51.894;4.622;2022-09-02T13:35:02;28.80;1.00
38131;DHT22;23947;51.894;4.622;2022-09-02T13:39:54;28.90;1.00
38131;DHT22;23947;51.894;4.622;2022-09-02T13:42:24;29.00;1.00
38131;DHT22;23947;51.894;4.622;2022-09-02T13:44:50;29.00;1.00
38131;DHT22;23947;51.894;4.622;2022-09-02T13:47:16;29.00;1.00
38131;DHT22;23947;51.894;4.622;2022-09-02T13:49:45;28.90;1.00
38131;DHT22;23947;51.894;4.622;2022-09-02T13:52:15;28.70;1.00
38131;DHT22;23947;51.894;4.622;2022-09-02T13:54:45;28.70;1.00
38131;DHT22;23947;51.894;4.622;2022-09-02T13:57:12;28.60;1.00
38131;DHT22;23947;51.894;4.622;2022-09-02T13:59:49;28.60;1.00
38131;DHT22;23947;51.894;4.622;2022-09-02T14:04:53;28.60;1.00
38131;DHT22;23947;51.894;4.622;2022-09-02T14:07:25;28.40;1.00
38131;DHT22;23947;51.894;4.622;2022-09-02T14:09:51;28.40;1.00
38131;DHT22;23947;51.894;4.622;2022-09-02T14:12:17;28.20;1.00
38131;DHT22;23947;51.894;4.622;2022-09-02T14:14:42;28.10;1.00
38131;DHT22;23947;51.894;4.622;2022-09-02T14:17:24;28.10;1.00
38131;DHT22;23947;51.894;4.622;2022-09-02T14:19:50;28.20;1.00
38131;DHT22;23947;51.894;4.622;2022-09-02T14:22:29;28.20;1.00
38131;DHT22;23947;51.894;4.622;2022-09-02T14:24:55;28.20;1.00
38131;DHT22;23947;51.894;4.622;2022-09-02T14:27:21;28.20;1.00
38131;DHT22;23947;51.894;4.622;2022-09-02T14:29:48;28.30;1.00
38131;DHT22;23947;51.894;4.622;2022-09-02T14:32:21;28.40;1.00
38131;DHT22;23947;51.894;4.622;2022-09-02T14:34:47;28.50;1.00
38131;DHT22;23947;51.894;4.622;2022-09-02T14:37:17;28.60;1.00
38131;DHT22;23947;51.894;4.622;2022-09-02T14:39:50;28.80;1.00
38131;DHT22;23947;51.894;4.622;2022-09-02T14:42:15;28.80;1.00
38131;DHT22;23947;51.894;4.622;2022-09-02T14:44:41;28.80;1.00
38131;DHT22;23947;51.894;4.622;2022-09-02T14:47:13;28.70;1.00
38131;DHT22;23947;51.894;4.622;2022-09-02T14:54:46;28.60;1.00
38131;DHT22;23947;51.894;4.622;2022-09-02T14:57:20;28.50;1.00
38131;DHT22;23947;51.894;4.622;2022-09-02T14:59:46;28.50;1.00
38131;DHT22;23947;51.894;4.622;2022-09-02T15:02:20;28.30;1.00
38131;DHT22;23947;51.894;4.622;2022-09-02T15:04:46;28.30;1.00
38131;DHT22;23947;51.894;4.622;2022-09-02T15:07:11;28.10;1.00
38131;DHT22;23947;51.894;4.622;2022-09-02T15:09:37;28.10;1.00
38131;DHT22;23947;51.894;4.622;2022-09-02T15:12:02;28.00;1.00
38131;DHT22;23947;51.894;4.622;2022-09-02T15:14:28;27.80;1.00
38131;DHT22;23947;51.894;4.622;2022-09-02T15:16:54;27.70;1.00
38131;DHT22;23947;51.894;4.622;2022-09-02T15:19:19;27.60;1.00
38131;DHT22;23947;51.894;4.622;2022-09-02T15:21:45;27.40;1.00
38131;DHT22;23947;51.894;4.622;2022-09-02T15:24:10;27.30;1.00
38131;DHT22;23947;51.894;4.622;2022-09-02T15:26:36;27.20;1.00
38131;DHT22;23947;51.894;4.622;2022-09-02T15:29:01;27.00;1.00
38131;DHT22;23947;51.894;4.622;2022-09-02T15:31:28;26.90;1.00
38131;DHT22;23947;51.894;4.622;2022-09-02T15:33:53;26.70;1.00
38131;DHT22;23947;51.894;4.622;2022-09-02T15:36:19;26.70;1.00
38131;DHT22;23947;51.894;4.622;2022-09-02T15:38:45;26.60;1.00
38131;DHT22;23947;51.894;4.622;2022-09-02T15:43:42;26.50;1.00
38131;DHT22;23947;51.894;4.622;2022-09-02T15:46:15;26.50;1.00
38131;DHT22;23947;51.894;4.622;2022-09-02T15:48:41;26.50;1.00
38131;DHT22;23947;51.894;4.622;2022-09-02T15:51:10;26.40;1.00
38131;DHT22;23947;51.894;4.622;2022-09-02T15:53:35;26.30;1.00
38131;DHT22;23947;51.894;4.622;2022-09-02T15:56:01;26.30;1.00
38131;DHT22;23947;51.894;4.622;2022-09-02T15:58:26;26.30;1.00
38131;DHT22;23947;51.894;4.622;2022-09-02T16:00:52;26.20;1.00
38131;DHT22;23947;51.894;4.622;2022-09-02T16:03:17;26.10;1.00
38131;DHT22;23947;51.894;4.622;2022-09-02T16:05:43;26.10;1.00
38131;DHT22;23947;51.894;4.622;2022-09-02T16:08:08;26.00;1.00
38131;DHT22;23947;51.894;4.622;2022-09-02T16:10:35;26.00;1.00
38131;DHT22;23947;51.894;4.622;2022-09-02T16:13:01;26.00;1.00
38131;DHT22;23947;51.894;4.622;2022-09-02T16:15:27;25.90;1.00
38131;DHT22;23947;51.894;4.622;2022-09-02T16:17:54;25.90;1.00
38131;DHT22;23947;51.894;4.622;2022-09-02T16:20:19;25.80;1.00
38131;DHT22;23947;51.894;4.622;2022-09-02T16:22:46;25.70;1.00
38131;DHT22;23947;51.894;4.622;2022-09-02T16:25:12;25.70;1.00
38131;DHT22;23947;51.894;4.622;2022-09-02T16:27:38;25.60;1.00
38131;DHT22;23947;51.894;4.622;2022-09-02T16:30:20;25.50;1.00
38131;DHT22;23947;51.894;4.622;2022-09-02T16:32:46;25.40;1.00
38131;DHT22;23947;51.894;4.622;2022-09-02T16:35:12;25.30;1.00
38131;DHT22;23947;51.894;4.622;2022-09-02T16:37:38;25.20;1.00
38131;DHT22;23947;51.894;4.622;2022-09-02T16:40:04;25.10;1.00
38131;DHT22;23947;51.894;4.622;2022-09-02T16:42:30;25.10;1.00
38131;DHT22;23947;51.894;4.622;2022-09-02T16:44:55;25.00;1.00
38131;DHT22;23947;51.894;4.622;2022-09-02T16:47:21;24.90;1.00
38131;DHT22;23947;51.894;4.622;2022-09-02T16:49:46;24.90;1.00
38131;DHT22;23947;51.894;4.622;2022-09-02T16:52:12;24.80;1.00
38131;DHT22;23947;51.894;4.622;2022-09-02T16:54:37;24.70;1.00
38131;DHT22;23947;51.894;4.622;2022-09-02T16:57:03;24.70;1.00
38131;DHT22;23947;51.894;4.622;2022-09-02T16:59:28;24.60;1.00
38131;DHT22;23947;51.894;4.622;2022-09-02T17:01:56;24.60;1.00
38131;DHT22;23947;51.894;4.622;2022-09-02T17:04:21;24.60;1.00
38131;DHT22;23947;51.894;4.622;2022-09-02T17:06:47;24.60;1.00
38131;DHT22;23947;51.894;4.622;2022-09-02T17:09:12;24.60;1.00
38131;DHT22;23947;51.894;4.622;2022-09-02T17:11:38;24.60;1.00
38131;DHT22;23947;51.894;4.622;2022-09-02T17:14:09;24.50;1.00
38131;DHT22;23947;51.894;4.622;2022-09-02T17:16:37;24.50;1.00
38131;DHT22;23947;51.894;4.622;2022-09-02T17:19:03;24.50;1.00
38131;DHT22;23947;51.894;4.622;2022-09-02T17:21:29;24.50;1.00
38131;DHT22;23947;51.894;4.622;2022-09-02T17:23:58;24.40;1.00
38131;DHT22;23947;51.894;4.622;2022-09-02T17:26:24;24.30;1.00
38131;DHT22;23947;51.894;4.622;2022-09-02T17:28:51;24.30;1.00
38131;DHT22;23947;51.894;4.622;2022-09-02T17:31:20;24.20;1.00
38131;DHT22;23947;51.894;4.622;2022-09-02T17:33:46;24.20;1.00
38131;DHT22;23947;51.894;4.622;2022-09-02T17:36:12;24.20;1.00
38131;DHT22;23947;51.894;4.622;2022-09-02T17:38:38;24.10;1.00
38131;DHT22;23947;51.894;4.622;2022-09-02T17:41:03;24.00;1.00
38131;DHT22;23947;51.894;4.622;2022-09-02T17:43:47;23.90;1.00
38131;DHT22;23947;51.894;4.622;2022-09-02T17:46:13;23.80;1.00
38131;DHT22;23947;51.894;4.622;2022-09-02T17:48:38;23.80;1.00
38131;DHT22;23947;51.894;4.622;2022-09-02T17:51:05;23.80;1.00
38131;DHT22;23947;51.894;4.622;2022-09-02T17:53:30;23.70;1.00